You are not logged in, Click here to log in
ICAO: RJTT Country: 日本東京都大田區
Latitude: 35.5494 Longitude: 139.78
Total Arrivals: 108 Total Departures: 115
Latest Arrival: JL220 (RJBB-RJTT)Arthur. Kung Latest Departure: HDJ735 (RJTT-RJFU)Arthur. Kung
Scenery: http://forums.x-plane.org/index.php?/files/file/37241-rjtt-tokyo-haneda-airport/
METAR : RJTT 151830Z 36015KT 7000 -SHRA FEW007 BKN009 23/22 Q1004 TEMPO 3000 SHRA BR FEW003 BKN005 RMK 1ST007 7CU009 A2966

東京国際空港(羽田)HND